createdAt,value
2023-03-27T00:00:27.359Z,95443.25
2023-03-27T00:03:32.202Z,95464.69
2023-03-27T00:06:37.176Z,95460.50
2023-03-27T00:09:44.394Z,95432.19
2023-03-27T00:12:49.649Z,95465.94
2023-03-27T00:15:56.050Z,95469.22
2023-03-27T00:19:00.561Z,95466.63
2023-03-27T00:22:05.317Z,95445.88
2023-03-27T00:25:11.568Z,95453.22
2023-03-27T00:28:18.479Z,95466.47
2023-03-27T00:31:23.224Z,95444.06
2023-03-27T00:34:29.003Z,95428.72
2023-03-27T00:37:33.767Z,95477.34
2023-03-27T00:40:39.696Z,95443.31
2023-03-27T00:43:44.359Z,95470.03
2023-03-27T00:46:49.574Z,95465.94
2023-03-27T00:49:55.450Z,95468.50
2023-03-27T00:53:07.670Z,95468.81
2023-03-27T00:56:13.366Z,95469.25
2023-03-27T00:59:23.148Z,95472.50
2023-03-27T01:02:28.095Z,95463.41
2023-03-27T01:05:34.062Z,95466.56
2023-03-27T01:08:38.651Z,95464.66
2023-03-27T01:12:01.281Z,95468.25
2023-03-27T01:15:21.805Z,95472.69
2023-03-27T01:18:56.832Z,95480.34
2023-03-27T01:22:32.250Z,95468.91
2023-03-27T01:26:35.564Z,95476.50
2023-03-27T01:30:07.152Z,95465.00
2023-03-27T01:33:32.838Z,95480.63
2023-03-27T01:37:06.691Z,95451.25
2023-03-27T01:40:41.525Z,95483.22
2023-03-27T01:43:56.615Z,95486.09
2023-03-27T01:47:09.645Z,95470.38
2023-03-27T01:50:21.396Z,95490.25
2023-03-27T01:53:37.125Z,95501.09
2023-03-27T01:56:51.790Z,95472.81
2023-03-27T02:00:18.846Z,95499.59
2023-03-27T02:03:29.308Z,95466.28
2023-03-27T02:06:45.171Z,95464.66
2023-03-27T02:09:55.166Z,95485.13
2023-03-27T02:13:07.285Z,95504.28
2023-03-27T02:16:17.172Z,95502.13
2023-03-27T02:19:30.122Z,95504.97
2023-03-27T02:22:37.461Z,95500.06
2023-03-27T02:25:46.519Z,95501.47
2023-03-27T02:29:03.403Z,95487.47
2023-03-27T02:32:28.815Z,95486.31
2023-03-27T02:36:13.341Z,95505.66
2023-03-27T02:39:38.548Z,95502.97
2023-03-27T02:42:50.256Z,95459.38
2023-03-27T02:46:03.207Z,95502.03
2023-03-27T02:49:16.122Z,95505.75
2023-03-27T02:52:24.938Z,95501.09
2023-03-27T02:55:35.879Z,95504.69
2023-03-27T02:58:54.066Z,95500.81
2023-03-27T03:02:14.799Z,95499.78
2023-03-27T03:05:32.273Z,95464.75
2023-03-27T03:08:38.908Z,95507.44
2023-03-27T03:11:51.858Z,95503.59
2023-03-27T03:14:56.703Z,95497.47
2023-03-27T03:18:01.557Z,95482.00
2023-03-27T03:21:08.488Z,95511.13
2023-03-27T03:24:13.233Z,95491.84
2023-03-27T03:27:21.032Z,95490.47
2023-03-27T03:30:33.556Z,95464.91
2023-03-27T03:33:45.440Z,95485.69
2023-03-27T03:36:50.387Z,95499.31
2023-03-27T03:40:01.750Z,95500.47
2023-03-27T03:43:08.888Z,95506.25
2023-03-27T03:46:13.582Z,95489.06
2023-03-27T03:49:18.551Z,95489.06
2023-03-27T03:52:23.135Z,95477.75
2023-03-27T03:55:27.756Z,95508.47
2023-03-27T03:58:34.563Z,95518.31
2023-03-27T04:01:42.157Z,95516.69
2023-03-27T04:04:46.887Z,95524.06
2023-03-27T04:07:52.626Z,95519.09
2023-03-27T04:11:15.719Z,95521.03
2023-03-27T04:14:32.546Z,95526.78
2023-03-27T04:17:39.674Z,95500.03
2023-03-27T04:20:50.383Z,95533.06
2023-03-27T04:24:02.341Z,95527.03
2023-03-27T04:27:21.124Z,95490.84
2023-03-27T04:30:45.336Z,95528.34
2023-03-27T04:34:09.252Z,95503.97
2023-03-27T04:37:41.387Z,95542.00
2023-03-27T04:40:56.502Z,95525.97
2023-03-27T04:44:01.677Z,95520.94
2023-03-27T04:47:09.033Z,95536.09
2023-03-27T04:50:16.718Z,95538.06
2023-03-27T04:53:23.508Z,95561.53
2023-03-27T04:56:30.681Z,95556.56
2023-03-27T04:59:36.994Z,95567.34
2023-03-27T05:03:01.129Z,95557.47
2023-03-27T05:06:17.789Z,95579.28
2023-03-27T05:09:23.470Z,95567.00
2023-03-27T05:12:28.249Z,95571.16
2023-03-27T05:15:38.994Z,95579.63
2023-03-27T05:18:45.481Z,95582.19
2023-03-27T05:21:50.049Z,95590.97
2023-03-27T05:24:54.540Z,95567.88
2023-03-27T05:28:00.452Z,95592.53
2023-03-27T05:31:10.592Z,95578.72
2023-03-27T05:34:27.098Z,95603.97
2023-03-27T05:37:33.686Z,95606.31
2023-03-27T05:41:01.983Z,95598.94
2023-03-27T05:44:08.336Z,95614.22
2023-03-27T05:47:16.862Z,95590.09
2023-03-27T05:50:25.315Z,95618.28
2023-03-27T05:53:31.055Z,95599.28
2023-03-27T05:56:53.323Z,95625.22
2023-03-27T05:59:58.023Z,95632.53
2023-03-27T06:03:04.394Z,95636.72
2023-03-27T06:06:27.602Z,95617.72
2023-03-27T06:09:36.373Z,95659.63
2023-03-27T06:13:06.582Z,95663.66
2023-03-27T06:16:20.888Z,95635.09
2023-03-27T06:19:40.914Z,95677.91
2023-03-27T06:22:46.609Z,95664.09
2023-03-27T06:25:53.088Z,95668.13
2023-03-27T06:29:01.227Z,95693.28
2023-03-27T06:32:13.783Z,95675.16
2023-03-27T06:35:27.669Z,95704.13
2023-03-27T06:38:37.246Z,95700.19
2023-03-27T06:41:43.261Z,95714.06
2023-03-27T06:45:11.711Z,95730.06
2023-03-27T06:48:52.990Z,95753.63
2023-03-27T06:51:57.672Z,95749.38
2023-03-27T06:55:04.024Z,95757.56
2023-03-27T06:58:13.263Z,95792.69
2023-03-27T07:01:18.368Z,95799.06
2023-03-27T07:04:42.902Z,95825.28
2023-03-27T07:07:58.287Z,95820.31
2023-03-27T07:11:11.659Z,95840.81
2023-03-27T07:14:23.534Z,95849.78
2023-03-27T07:17:38.270Z,95857.31
2023-03-27T07:20:51.108Z,95851.50
2023-03-27T07:23:59.614Z,95864.66
2023-03-27T07:27:12.335Z,95896.31
2023-03-27T07:30:18.908Z,95905.84
2023-03-27T07:33:23.566Z,95923.16
2023-03-27T07:36:28.850Z,95910.97
2023-03-27T07:39:42.704Z,95932.91
2023-03-27T07:42:48.365Z,95939.69
2023-03-27T07:45:58.057Z,95962.81
2023-03-27T07:49:04.877Z,95962.47
2023-03-27T07:52:09.592Z,95983.25
2023-03-27T07:55:23.024Z,95995.94
2023-03-27T07:58:42.903Z,95977.00
2023-03-27T08:01:50.485Z,95981.75
2023-03-27T08:04:56.069Z,96034.88
2023-03-27T08:08:01.401Z,96001.66
2023-03-27T08:11:30.098Z,96023.91
2023-03-27T08:14:35.541Z,96046.22
2023-03-27T08:17:53.797Z,96040.69
2023-03-27T08:21:03.299Z,96082.03
2023-03-27T08:24:09.061Z,96083.41
2023-03-27T08:27:36.662Z,96095.44
2023-03-27T08:30:41.887Z,96071.63
2023-03-27T08:33:47.073Z,96107.28
2023-03-27T08:36:59.078Z,96112.00
2023-03-27T08:40:25.946Z,96139.06
2023-03-27T08:43:44.738Z,96148.28
2023-03-27T08:46:56.062Z,96135.88
2023-03-27T08:50:05.761Z,96170.38
2023-03-27T08:54:12.456Z,96180.34
2023-03-27T08:57:23.001Z,96199.09
2023-03-27T09:00:39.482Z,96212.22
2023-03-27T09:04:05.074Z,96214.72
2023-03-27T09:07:21.037Z,96213.91
2023-03-27T09:10:49.532Z,96234.06
2023-03-27T09:14:28.197Z,96216.66
2023-03-27T09:17:48.149Z,96227.56
2023-03-27T09:21:05.700Z,96235.03
2023-03-27T09:24:32.915Z,96249.59
2023-03-27T09:28:21.000Z,96287.56
2023-03-27T09:31:50.286Z,96283.00
2023-03-27T09:34:55.695Z,96303.75
2023-03-27T09:38:04.023Z,96313.41
2023-03-27T09:41:28.676Z,96324.97
2023-03-27T09:44:40.368Z,96334.84
2023-03-27T09:47:51.438Z,96324.81
2023-03-27T09:50:56.597Z,96341.63
2023-03-27T09:54:23.403Z,96322.41
2023-03-27T09:57:32.172Z,96361.00
2023-03-27T10:00:36.980Z,96373.94
2023-03-27T10:03:48.999Z,96371.88
2023-03-27T10:07:08.353Z,96369.50
2023-03-27T10:10:56.340Z,96377.97
2023-03-27T10:14:47.318Z,96396.72
2023-03-27T10:17:59.113Z,96401.81
2023-03-27T10:21:10.806Z,96400.47
2023-03-27T10:24:17.209Z,96426.50
2023-03-27T10:27:36.379Z,96443.91
2023-03-27T10:31:33.825Z,96401.78
2023-03-27T10:34:57.970Z,96412.72
2023-03-27T10:38:22.471Z,96447.16
2023-03-27T10:41:37.770Z,96427.72
2023-03-27T10:44:46.717Z,96448.53
2023-03-27T10:47:55.603Z,96418.66
2023-03-27T10:51:06.000Z,96447.28
2023-03-27T10:55:05.184Z,96453.63
2023-03-27T10:58:35.615Z,96466.84
2023-03-27T11:01:47.221Z,96455.19
2023-03-27T11:04:58.943Z,96442.41
2023-03-27T11:08:29.045Z,96491.56
2023-03-27T11:11:41.345Z,96489.19
2023-03-27T11:15:26.214Z,96495.81
2023-03-27T11:18:43.102Z,96487.34
2023-03-27T11:21:53.515Z,96486.56
2023-03-27T11:25:12.049Z,96509.81
2023-03-27T11:28:34.939Z,96517.34
2023-03-27T11:31:52.125Z,96528.31
2023-03-27T11:35:17.522Z,96518.63
2023-03-27T11:38:51.452Z,96517.09
2023-03-27T11:41:58.977Z,96489.72
2023-03-27T11:45:07.275Z,96508.56
2023-03-27T11:48:50.844Z,96513.81
2023-03-27T11:52:17.169Z,96526.47
2023-03-27T11:55:39.254Z,96539.03
2023-03-27T11:58:52.902Z,96554.47
2023-03-27T12:02:15.740Z,96530.09
2023-03-27T12:05:43.373Z,96550.94
2023-03-27T12:08:58.396Z,96558.06
2023-03-27T12:12:27.194Z,96546.16
2023-03-27T12:15:41.706Z,96545.03
2023-03-27T12:19:34.241Z,96543.78
2023-03-27T12:23:11.871Z,96527.94
2023-03-27T12:26:49.933Z,96534.03
2023-03-27T12:30:44.249Z,96528.09
2023-03-27T12:34:02.216Z,96530.59
2023-03-27T12:37:10.781Z,96505.00
2023-03-27T12:40:35.030Z,96558.97
2023-03-27T12:43:47.512Z,96556.81
2023-03-27T12:47:21.471Z,96543.13
2023-03-27T12:50:34.012Z,96536.03
2023-03-27T12:53:38.878Z,96539.00
2023-03-27T12:57:18.048Z,96537.56
2023-03-27T13:00:25.667Z,96502.25
2023-03-27T13:03:42.688Z,96524.53
2023-03-27T13:07:21.555Z,96494.81
2023-03-27T13:11:14.414Z,96533.34
2023-03-27T13:15:06.945Z,96541.84
2023-03-27T13:18:38.865Z,96552.31
2023-03-27T13:21:51.217Z,96571.28
2023-03-27T13:25:15.836Z,96579.41
2023-03-27T13:28:36.098Z,96572.81
2023-03-27T13:31:49.660Z,96584.06
2023-03-27T13:35:21.026Z,96586.63
2023-03-27T13:38:49.059Z,96577.19
2023-03-27T13:42:02.365Z,96571.22
2023-03-27T13:45:23.174Z,96579.78
2023-03-27T13:49:07.386Z,96590.59
2023-03-27T13:52:48.865Z,96598.41
2023-03-27T13:56:47.615Z,96605.16
2023-03-27T14:00:20.813Z,96602.53
2023-03-27T14:03:54.468Z,96601.91
2023-03-27T14:07:01.876Z,96616.47
2023-03-27T14:10:27.247Z,96639.59
2023-03-27T14:14:01.644Z,96639.72
2023-03-27T14:17:31.649Z,96657.84
2023-03-27T14:20:44.601Z,96637.47
2023-03-27T14:24:00.300Z,96643.09
2023-03-27T14:27:19.174Z,96632.59
2023-03-27T14:30:26.338Z,96635.78
2023-03-27T14:34:03.323Z,96631.63
2023-03-27T14:37:38.988Z,96642.47
2023-03-27T14:41:17.040Z,96623.44
2023-03-27T14:44:33.104Z,96648.75
2023-03-27T14:47:43.089Z,96638.28
2023-03-27T14:50:57.943Z,96649.56
2023-03-27T14:54:26.694Z,96649.22
2023-03-27T14:57:35.396Z,96654.59
2023-03-27T15:00:42.584Z,96633.25
2023-03-27T15:03:51.584Z,96661.00
2023-03-27T15:07:19.650Z,96677.06
2023-03-27T15:10:32.981Z,96679.69
2023-03-27T15:13:56.908Z,96684.41
2023-03-27T15:17:14.818Z,96693.72
2023-03-27T15:20:22.080Z,96708.72
2023-03-27T15:23:36.701Z,96712.25
2023-03-27T15:26:41.511Z,96717.81
2023-03-27T15:29:53.618Z,96710.88
2023-03-27T15:33:02.085Z,96731.97
2023-03-27T15:36:22.482Z,96735.47
2023-03-27T15:39:27.435Z,96729.72
2023-03-27T15:42:48.159Z,96739.78
2023-03-27T15:46:11.669Z,96739.16
2023-03-27T15:49:22.582Z,96753.22
2023-03-27T15:52:31.243Z,96749.78
2023-03-27T15:55:44.241Z,96729.75
2023-03-27T15:58:54.549Z,96756.47
2023-03-27T16:02:11.386Z,96769.84
2023-03-27T16:05:17.936Z,96766.63
2023-03-27T16:08:38.283Z,96757.22
2023-03-27T16:11:45.994Z,96774.84
2023-03-27T16:14:54.873Z,96779.47
2023-03-27T16:18:04.415Z,96789.44
2023-03-27T16:21:13.523Z,96792.28
2023-03-27T16:24:18.199Z,96795.63
2023-03-27T16:27:27.171Z,96791.31
2023-03-27T16:30:38.862Z,96788.97
2023-03-27T16:33:45.701Z,96804.16
2023-03-27T16:36:50.748Z,96814.47
2023-03-27T16:39:55.443Z,96836.22
2023-03-27T16:43:00.089Z,96843.47
2023-03-27T16:46:05.504Z,96843.69
2023-03-27T16:49:14.335Z,96823.09
2023-03-27T16:52:18.904Z,96840.94
2023-03-27T16:55:25.012Z,96860.84
2023-03-27T16:58:29.727Z,96839.41
2023-03-27T17:01:34.493Z,96867.53
2023-03-27T17:04:40.408Z,96861.75
2023-03-27T17:07:47.040Z,96869.41
2023-03-27T17:10:51.752Z,96884.75
2023-03-27T17:13:56.610Z,96881.38
2023-03-27T17:17:01.304Z,96880.72
2023-03-27T17:20:07.918Z,96910.56
2023-03-27T17:23:12.599Z,96917.41
2023-03-27T17:26:32.862Z,96929.34
2023-03-27T17:29:37.504Z,96886.69
2023-03-27T17:32:42.717Z,96914.03
2023-03-27T17:35:47.404Z,96925.13
2023-03-27T17:38:52.801Z,96915.72
2023-03-27T17:41:57.478Z,96901.25
2023-03-27T17:45:02.471Z,96937.06
2023-03-27T17:48:11.045Z,96931.06
2023-03-27T17:51:15.872Z,96915.72
2023-03-27T17:54:20.642Z,96963.53
2023-03-27T17:57:25.225Z,96974.56
2023-03-27T18:00:30.353Z,96969.50
2023-03-27T18:03:35.143Z,96972.88
2023-03-27T18:06:39.739Z,96976.34
2023-03-27T18:09:46.639Z,96975.47
2023-03-27T18:12:51.377Z,96976.31
2023-03-27T18:15:58.069Z,96980.56
2023-03-27T18:19:02.964Z,96954.09
2023-03-27T18:22:07.736Z,96993.31
2023-03-27T18:25:12.361Z,96959.97
2023-03-27T18:28:17.076Z,96988.16
2023-03-27T18:31:21.703Z,96993.28
2023-03-27T18:34:26.604Z,97008.66
2023-03-27T18:37:31.495Z,97009.53
2023-03-27T18:40:36.158Z,96977.03
2023-03-27T18:43:40.788Z,96984.66
2023-03-27T18:46:45.282Z,97017.13
2023-03-27T18:49:49.909Z,96988.94
2023-03-27T18:52:54.482Z,97018.00
2023-03-27T18:55:59.934Z,97020.59
2023-03-27T18:59:04.960Z,97008.38
2023-03-27T19:02:09.917Z,97025.63
2023-03-27T19:05:16.204Z,97019.63
2023-03-27T19:08:21.919Z,97029.06
2023-03-27T19:11:26.576Z,97018.75
2023-03-27T19:14:50.204Z,97009.34
2023-03-27T19:18:16.983Z,97032.19
2023-03-27T19:21:27.667Z,97021.97
2023-03-27T19:24:44.159Z,97016.13
2023-03-27T19:27:48.998Z,97033.06
2023-03-27T19:30:54.257Z,97046.63
2023-03-27T19:33:58.976Z,97047.53
2023-03-27T19:37:03.772Z,97037.34
2023-03-27T19:40:09.474Z,97031.22
2023-03-27T19:43:14.126Z,97051.78
2023-03-27T19:46:19.007Z,97052.47
2023-03-27T19:49:26.756Z,97056.78
2023-03-27T19:53:08.289Z,97030.13
2023-03-27T19:56:13.706Z,97044.66
2023-03-27T19:59:28.198Z,97025.00
2023-03-27T20:02:35.577Z,97054.06
2023-03-27T20:05:40.648Z,97053.16
2023-03-27T20:08:45.409Z,97047.09
2023-03-27T20:11:53.392Z,97030.03
2023-03-27T20:15:11.039Z,97055.75
2023-03-27T20:18:20.027Z,97054.94
2023-03-27T20:21:25.564Z,97061.69
2023-03-27T20:24:30.507Z,97055.78
2023-03-27T20:27:37.551Z,97065.00
2023-03-27T20:30:42.204Z,97021.53
2023-03-27T20:33:46.775Z,97030.88
2023-03-27T20:36:55.528Z,97035.06
2023-03-27T20:40:11.627Z,97067.53
2023-03-27T20:43:17.106Z,97065.19
2023-03-27T20:46:21.816Z,97068.44
2023-03-27T20:52:35.914Z,97055.78
2023-03-27T20:55:49.700Z,97063.81
2023-03-27T20:59:01.751Z,97068.88
2023-03-27T21:02:06.922Z,97068.88
2023-03-27T21:05:11.646Z,97059.25
2023-03-27T21:08:16.534Z,97037.97
2023-03-27T21:11:21.218Z,97064.63
2023-03-27T21:14:25.841Z,97066.28
2023-03-27T21:17:30.354Z,97070.59
2023-03-27T21:20:35.536Z,97014.97
2023-03-27T21:23:40.608Z,97066.28
2023-03-27T21:26:45.455Z,97034.69
2023-03-27T21:29:50.126Z,97055.22
2023-03-27T21:32:54.779Z,97040.72
2023-03-27T21:35:59.633Z,97055.28
2023-03-27T21:39:05.575Z,97090.97
2023-03-27T21:42:10.428Z,97096.84
2023-03-27T21:45:15.426Z,97086.72
2023-03-27T21:48:20.031Z,97085.59
2023-03-27T21:51:24.792Z,97057.88
2023-03-27T21:54:29.321Z,97105.69
2023-03-27T21:57:33.926Z,97113.16
2023-03-27T22:00:38.611Z,97105.34
2023-03-27T22:03:43.347Z,97095.22
2023-03-27T22:06:48.112Z,97104.34
2023-03-27T22:09:53.056Z,97093.50
2023-03-27T22:12:57.646Z,97105.69
2023-03-27T22:16:07.801Z,97118.94
2023-03-27T22:19:12.394Z,97115.03
2023-03-27T22:22:17.067Z,97120.94
2023-03-27T22:25:21.855Z,97120.38
2023-03-27T22:28:26.538Z,97122.25
2023-03-27T22:31:31.913Z,97107.78
2023-03-27T22:34:36.425Z,97121.34
2023-03-27T22:37:41.028Z,97129.22
2023-03-27T22:40:45.698Z,97112.09
2023-03-27T22:43:50.211Z,97134.44
2023-03-27T22:46:54.840Z,97138.84
2023-03-27T22:50:02.591Z,97124.63
2023-03-27T22:53:07.165Z,97122.13
2023-03-27T22:56:11.804Z,97113.56
2023-03-27T22:59:17.323Z,97149.16
2023-03-27T23:02:22.288Z,97153.81
2023-03-27T23:05:27.412Z,97160.19
2023-03-27T23:08:32.096Z,97167.16
2023-03-27T23:11:36.851Z,97137.66
2023-03-27T23:14:41.487Z,97149.13
2023-03-27T23:17:46.043Z,97174.50
2023-03-27T23:20:59.150Z,97175.38
2023-03-27T23:24:04.231Z,97161.47
2023-03-27T23:27:08.738Z,97169.34
2023-03-27T23:30:13.598Z,97187.31
2023-03-27T23:33:18.065Z,97170.34
2023-03-27T23:36:24.675Z,97193.72
2023-03-27T23:39:29.259Z,97180.34
2023-03-27T23:42:34.012Z,97201.16
2023-03-27T23:45:38.699Z,97205.41
2023-03-27T23:48:44.409Z,97202.88
2023-03-27T23:51:48.948Z,97189.03
2023-03-27T23:54:53.571Z,97214.59
2023-03-27T23:57:58.090Z,97214.63
